sensor_id;sensor_type;location;lat;lon;timestamp;pressure;altitude;pressure_sealevel;temperature;humidity
29433;BME280;16405;53.964;13.448;2023-10-13T00:00:31;100992.72;;;7.21;100.00
29433;BME280;16405;53.964;13.448;2023-10-13T00:03:02;100977.97;;;7.18;100.00
29433;BME280;16405;53.964;13.448;2023-10-13T00:05:29;100975.50;;;7.13;100.00
29433;BME280;16405;53.964;13.448;2023-10-13T00:08:03;100974.75;;;7.08;100.00
29433;BME280;16405;53.964;13.448;2023-10-13T00:10:30;100981.88;;;7.03;100.00
29433;BME280;16405;53.964;13.448;2023-10-13T00:12:56;100980.28;;;6.97;100.00
29433;BME280;16405;53.964;13.448;2023-10-13T00:15:42;100990.88;;;6.93;100.00
29433;BME280;16405;53.964;13.448;2023-10-13T00:18:32;100992.81;;;6.86;100.00
29433;BME280;16405;53.964;13.448;2023-10-13T00:21:21;100996.53;;;6.77;100.00
29433;BME280;16405;53.964;13.448;2023-10-13T00:24:01;100988.19;;;6.63;98.70
29433;BME280;16405;53.964;13.448;2023-10-13T00:26:31;100978.03;;;6.51;97.81
29433;BME280;16405;53.964;13.448;2023-10-13T00:29:03;100980.91;;;6.42;97.22
29433;BME280;16405;53.964;13.448;2023-10-13T00:31:41;100974.09;;;6.34;96.92
29433;BME280;16405;53.964;13.448;2023-10-13T00:34:12;100978.44;;;6.35;97.31
29433;BME280;16405;53.964;13.448;2023-10-13T00:36:48;100973.97;;;6.39;98.05
29433;BME280;16405;53.964;13.448;2023-10-13T00:39:32;100968.66;;;6.44;99.35
29433;BME280;16405;53.964;13.448;2023-10-13T00:42:04;100971.00;;;6.53;100.00
29433;BME280;16405;53.964;13.448;2023-10-13T00:44:34;100974.31;;;6.60;100.00
29433;BME280;16405;53.964;13.448;2023-10-13T00:47:09;100971.50;;;6.67;100.00
29433;BME280;16405;53.964;13.448;2023-10-13T00:49:51;100963.53;;;6.72;100.00
29433;BME280;16405;53.964;13.448;2023-10-13T00:52:17;100961.66;;;6.77;100.00
29433;BME280;16405;53.964;13.448;2023-10-13T00:54:45;100956.28;;;6.82;100.00
29433;BME280;16405;53.964;13.448;2023-10-13T00:57:16;100962.25;;;6.87;100.00
29433;BME280;16405;53.964;13.448;2023-10-13T01:00:00;100961.25;;;6.91;100.00
29433;BME280;16405;53.964;13.448;2023-10-13T01:02:38;100960.38;;;6.92;100.00
29433;BME280;16405;53.964;13.448;2023-10-13T01:05:07;100968.09;;;6.96;100.00
29433;BME280;16405;53.964;13.448;2023-10-13T01:07:37;100957.63;;;6.96;100.00
29433;BME280;16405;53.964;13.448;2023-10-13T01:10:09;100964.63;;;6.96;100.00
29433;BME280;16405;53.964;13.448;2023-10-13T01:12:38;100963.00;;;6.92;100.00
29433;BME280;16405;53.964;13.448;2023-10-13T01:15:04;100963.88;;;6.91;100.00
29433;BME280;16405;53.964;13.448;2023-10-13T01:17:36;100966.56;;;6.89;100.00
29433;BME280;16405;53.964;13.448;2023-10-13T01:20:03;100963.19;;;6.84;100.00
29433;BME280;16405;53.964;13.448;2023-10-13T01:22:32;100954.59;;;6.81;100.00
29433;BME280;16405;53.964;13.448;2023-10-13T01:25:02;100947.63;;;6.80;100.00
29433;BME280;16405;53.964;13.448;2023-10-13T01:27:38;100945.03;;;6.78;100.00
29433;BME280;16405;53.964;13.448;2023-10-13T01:30:10;100939.72;;;6.81;100.00
29433;BME280;16405;53.964;13.448;2023-10-13T01:32:52;100941.41;;;6.84;100.00
29433;BME280;16405;53.964;13.448;2023-10-13T01:35:19;100936.97;;;6.86;100.00
29433;BME280;16405;53.964;13.448;2023-10-13T01:37:53;100947.41;;;6.87;100.00
29433;BME280;16405;53.964;13.448;2023-10-13T01:40:18;100949.16;;;6.87;100.00
29433;BME280;16405;53.964;13.448;2023-10-13T01:42:49;100949.09;;;6.90;100.00
29433;BME280;16405;53.964;13.448;2023-10-13T01:45:24;100937.69;;;6.91;100.00
29433;BME280;16405;53.964;13.448;2023-10-13T01:47:56;100937.66;;;6.92;100.00
29433;BME280;16405;53.964;13.448;2023-10-13T01:50:26;100941.19;;;6.91;100.00
29433;BME280;16405;53.964;13.448;2023-10-13T01:52:56;100928.88;;;6.95;100.00
29433;BME280;16405;53.964;13.448;2023-10-13T01:55:47;100926.22;;;6.96;100.00
29433;BME280;16405;53.964;13.448;2023-10-13T01:58:15;100920.03;;;6.99;100.00
29433;BME280;16405;53.964;13.448;2023-10-13T02:00:49;100920.81;;;7.03;100.00
29433;BME280;16405;53.964;13.448;2023-10-13T02:03:15;100915.47;;;7.06;100.00
29433;BME280;16405;53.964;13.448;2023-10-13T02:05:51;100919.69;;;7.11;100.00
29433;BME280;16405;53.964;13.448;2023-10-13T02:08:23;100917.78;;;7.16;100.00
29433;BME280;16405;53.964;13.448;2023-10-13T02:10:58;100921.03;;;7.25;100.00
29433;BME280;16405;53.964;13.448;2023-10-13T02:13:26;100923.47;;;7.31;100.00
29433;BME280;16405;53.964;13.448;2023-10-13T02:15:57;100916.28;;;7.37;100.00
29433;BME280;16405;53.964;13.448;2023-10-13T02:18:29;100923.97;;;7.44;100.00
29433;BME280;16405;53.964;13.448;2023-10-13T02:21:08;100925.53;;;7.49;100.00
29433;BME280;16405;53.964;13.448;2023-10-13T02:23:46;100918.44;;;7.53;100.00
29433;BME280;16405;53.964;13.448;2023-10-13T02:26:31;100911.34;;;7.56;100.00
29433;BME280;16405;53.964;13.448;2023-10-13T02:28:59;100912.91;;;7.62;100.00
29433;BME280;16405;53.964;13.448;2023-10-13T02:31:27;100905.75;;;7.67;100.00
29433;BME280;16405;53.964;13.448;2023-10-13T02:33:53;100901.25;;;7.71;100.00
29433;BME280;16405;53.964;13.448;2023-10-13T02:36:19;100901.16;;;7.75;100.00
29433;BME280;16405;53.964;13.448;2023-10-13T02:39:03;100906.13;;;7.83;100.00
29433;BME280;16405;53.964;13.448;2023-10-13T02:41:35;100891.09;;;7.88;100.00
29433;BME280;16405;53.964;13.448;2023-10-13T02:44:04;100894.41;;;7.95;100.00
29433;BME280;16405;53.964;13.448;2023-10-13T02:46:40;100888.03;;;8.02;100.00
29433;BME280;16405;53.964;13.448;2023-10-13T02:49:06;100890.50;;;8.07;100.00
29433;BME280;16405;53.964;13.448;2023-10-13T02:51:39;100888.53;;;8.13;100.00
29433;BME280;16405;53.964;13.448;2023-10-13T02:54:12;100883.13;;;8.18;100.00
29433;BME280;16405;53.964;13.448;2023-10-13T02:56:51;100880.28;;;8.24;100.00
29433;BME280;16405;53.964;13.448;2023-10-13T02:59:28;100880.25;;;8.26;100.00
29433;BME280;16405;53.964;13.448;2023-10-13T03:02:07;100878.34;;;8.29;100.00
29433;BME280;16405;53.964;13.448;2023-10-13T03:04:55;100873.81;;;8.34;100.00
29433;BME280;16405;53.964;13.448;2023-10-13T03:07:28;100869.25;;;8.41;100.00
29433;BME280;16405;53.964;13.448;2023-10-13T03:09:56;100863.81;;;8.46;100.00
29433;BME280;16405;53.964;13.448;2023-10-13T03:12:37;100865.44;;;8.50;100.00
29433;BME280;16405;53.964;13.448;2023-10-13T03:15:04;100845.13;;;8.55;100.00
29433;BME280;16405;53.964;13.448;2023-10-13T03:17:44;100845.88;;;8.58;100.00
29433;BME280;16405;53.964;13.448;2023-10-13T03:20:16;100849.28;;;8.60;100.00
29433;BME280;16405;53.964;13.448;2023-10-13T03:22:47;100835.25;;;8.61;100.00
29433;BME280;16405;53.964;13.448;2023-10-13T03:25:20;100845.69;;;8.63;100.00
29433;BME280;16405;53.964;13.448;2023-10-13T03:28:09;100835.19;;;8.63;100.00
29433;BME280;16405;53.964;13.448;2023-10-13T03:30:42;100818.56;;;8.64;100.00
29433;BME280;16405;53.964;13.448;2023-10-13T03:33:10;100824.47;;;8.69;100.00
29433;BME280;16405;53.964;13.448;2023-10-13T03:35:41;100819.81;;;8.77;100.00
29433;BME280;16405;53.964;13.448;2023-10-13T03:38:26;100817.75;;;8.86;100.00
29433;BME280;16405;53.964;13.448;2023-10-13T03:40:52;100807.13;;;8.89;100.00
29433;BME280;16405;53.964;13.448;2023-10-13T03:43:43;100810.34;;;8.95;100.00
29433;BME280;16405;53.964;13.448;2023-10-13T03:46:17;100803.28;;;8.97;100.00
29433;BME280;16405;53.964;13.448;2023-10-13T03:48:49;100808.47;;;8.99;100.00
29433;BME280;16405;53.964;13.448;2023-10-13T03:51:19;100797.84;;;9.02;100.00
29433;BME280;16405;53.964;13.448;2023-10-13T03:53:45;100787.16;;;9.07;100.00
29433;BME280;16405;53.964;13.448;2023-10-13T03:56:24;100786.97;;;9.11;100.00
29433;BME280;16405;53.964;13.448;2023-10-13T03:58:58;100781.47;;;9.17;100.00
29433;BME280;16405;53.964;13.448;2023-10-13T04:01:26;100777.88;;;9.20;100.00
29433;BME280;16405;53.964;13.448;2023-10-13T04:04:00;100777.72;;;9.24;100.00
29433;BME280;16405;53.964;13.448;2023-10-13T04:06:32;100766.22;;;9.27;100.00
29433;BME280;16405;53.964;13.448;2023-10-13T04:09:22;100758.88;;;9.35;100.00
29433;BME280;16405;53.964;13.448;2023-10-13T04:12:17;100749.03;;;9.40;100.00
29433;BME280;16405;53.964;13.448;2023-10-13T04:15:21;100745.34;;;9.44;100.00
29433;BME280;16405;53.964;13.448;2023-10-13T04:20:17;100746.00;;;9.50;100.00
29433;BME280;16405;53.964;13.448;2023-10-13T04:23:11;100726.63;;;9.52;100.00
29433;BME280;16405;53.964;13.448;2023-10-13T04:25:42;100730.81;;;9.56;100.00
29433;BME280;16405;53.964;13.448;2023-10-13T04:28:09;100706.13;;;9.60;100.00
29433;BME280;16405;53.964;13.448;2023-10-13T04:30:58;100712.97;;;9.64;100.00
29433;BME280;16405;53.964;13.448;2023-10-13T04:33:52;100702.19;;;9.71;100.00
29433;BME280;16405;53.964;13.448;2023-10-13T04:36:21;100697.66;;;9.74;100.00
29433;BME280;16405;53.964;13.448;2023-10-13T04:39:02;100696.66;;;9.77;100.00
29433;BME280;16405;53.964;13.448;2023-10-13T04:41:44;100700.66;;;9.85;100.00
29433;BME280;16405;53.964;13.448;2023-10-13T04:44:18;100701.34;;;9.89;100.00
29433;BME280;16405;53.964;13.448;2023-10-13T04:47:09;100705.50;;;9.95;100.00
29433;BME280;16405;53.964;13.448;2023-10-13T04:49:47;100702.59;;;10.01;100.00
29433;BME280;16405;53.964;13.448;2023-10-13T04:52:16;100706.81;;;10.05;100.00
29433;BME280;16405;53.964;13.448;2023-10-13T04:55:01;100693.59;;;10.06;100.00
29433;BME280;16405;53.964;13.448;2023-10-13T04:58:02;100686.50;;;10.09;100.00
29433;BME280;16405;53.964;13.448;2023-10-13T05:00:53;100681.97;;;10.11;100.00
29433;BME280;16405;53.964;13.448;2023-10-13T05:03:43;100680.94;;;10.15;100.00
29433;BME280;16405;53.964;13.448;2023-10-13T05:06:28;100681.09;;;10.12;100.00
29433;BME280;16405;53.964;13.448;2023-10-13T05:09:24;100671.47;;;10.11;100.00
29433;BME280;16405;53.964;13.448;2023-10-13T05:12:08;100665.22;;;10.13;100.00
29433;BME280;16405;53.964;13.448;2023-10-13T05:14:56;100667.56;;;10.19;100.00
29433;BME280;16405;53.964;13.448;2023-10-13T05:17:40;100657.63;;;10.26;100.00
29433;BME280;16405;53.964;13.448;2023-10-13T05:20:28;100657.50;;;10.29;100.00
29433;BME280;16405;53.964;13.448;2023-10-13T05:23:13;100662.78;;;10.29;100.00
29433;BME280;16405;53.964;13.448;2023-10-13T05:26:09;100661.88;;;10.29;100.00
29433;BME280;16405;53.964;13.448;2023-10-13T05:28:53;100654.81;;;10.31;100.00
29433;BME280;16405;53.964;13.448;2023-10-13T05:31:40;100645.13;;;10.31;100.00
29433;BME280;16405;53.964;13.448;2023-10-13T05:34:25;100641.50;;;10.34;100.00
29433;BME280;16405;53.964;13.448;2023-10-13T05:37:28;100642.22;;;10.37;100.00
29433;BME280;16405;53.964;13.448;2023-10-13T05:40:15;100638.56;;;10.40;100.00
29433;BME280;16405;53.964;13.448;2023-10-13T05:42:59;100647.09;;;10.45;100.00
29433;BME280;16405;53.964;13.448;2023-10-13T05:45:43;100631.13;;;10.50;100.00
29433;BME280;16405;53.964;13.448;2023-10-13T05:48:34;100614.22;;;10.54;100.00
29433;BME280;16405;53.964;13.448;2023-10-13T05:51:17;100603.56;;;10.57;100.00
29433;BME280;16405;53.964;13.448;2023-10-13T05:54:03;100599.75;;;10.62;100.00
29433;BME280;16405;53.964;13.448;2023-10-13T05:56:51;100596.03;;;10.66;100.00
29433;BME280;16405;53.964;13.448;2023-10-13T05:59:37;100596.53;;;10.75;100.00
29433;BME280;16405;53.964;13.448;2023-10-13T06:02:23;100595.38;;;10.80;100.00
29433;BME280;16405;53.964;13.448;2023-10-13T06:05:12;100589.94;;;10.83;100.00
29433;BME280;16405;53.964;13.448;2023-10-13T06:07:59;100587.09;;;10.88;100.00
29433;BME280;16405;53.964;13.448;2023-10-13T06:10:44;100583.53;;;10.89;100.00
29433;BME280;16405;53.964;13.448;2023-10-13T06:13:28;100590.44;;;10.92;100.00
29433;BME280;16405;53.964;13.448;2023-10-13T06:16:16;100587.63;;;10.95;100.00
29433;BME280;16405;53.964;13.448;2023-10-13T06:19:01;100579.59;;;10.98;100.00
29433;BME280;16405;53.964;13.448;2023-10-13T06:21:46;100581.13;;;11.02;100.00
29433;BME280;16405;53.964;13.448;2023-10-13T06:24:30;100577.41;;;11.06;100.00
29433;BME280;16405;53.964;13.448;2023-10-13T06:27:16;100566.94;;;11.04;100.00
29433;BME280;16405;53.964;13.448;2023-10-13T06:30:01;100567.78;;;11.05;100.00
29433;BME280;16405;53.964;13.448;2023-10-13T06:32:30;100574.69;;;11.07;100.00
29433;BME280;16405;53.964;13.448;2023-10-13T06:34:57;100564.00;;;11.11;100.00
29433;BME280;16405;53.964;13.448;2023-10-13T06:37:27;100564.69;;;11.14;100.00
29433;BME280;16405;53.964;13.448;2023-10-13T06:40:12;100558.31;;;11.18;100.00
29433;BME280;16405;53.964;13.448;2023-10-13T06:42:52;100560.97;;;11.18;100.00
29433;BME280;16405;53.964;13.448;2023-10-13T06:45:37;100548.72;;;11.17;100.00
29433;BME280;16405;53.964;13.448;2023-10-13T06:48:04;100552.91;;;11.21;100.00
29433;BME280;16405;53.964;13.448;2023-10-13T06:50:30;100542.97;;;11.26;100.00
29433;BME280;16405;53.964;13.448;2023-10-13T06:53:04;100539.06;;;11.34;100.00
29433;BME280;16405;53.964;13.448;2023-10-13T06:55:30;100543.88;;;11.43;100.00
29433;BME280;16405;53.964;13.448;2023-10-13T06:58:01;100540.03;;;11.48;100.00
29433;BME280;16405;53.964;13.448;2023-10-13T07:00:28;100544.91;;;11.56;100.00
29433;BME280;16405;53.964;13.448;2023-10-13T07:03:09;100542.28;;;11.56;100.00
29433;BME280;16405;53.964;13.448;2023-10-13T07:05:43;100541.34;;;11.57;100.00
29433;BME280;16405;53.964;13.448;2023-10-13T07:08:10;100542.09;;;11.59;100.00
29433;BME280;16405;53.964;13.448;2023-10-13T07:10:55;100530.53;;;11.62;100.00
29433;BME280;16405;53.964;13.448;2023-10-13T07:13:36;100527.81;;;11.63;100.00
29433;BME280;16405;53.964;13.448;2023-10-13T07:16:05;100534.03;;;11.62;100.00
29433;BME280;16405;53.964;13.448;2023-10-13T07:18:33;100535.47;;;11.68;100.00
29433;BME280;16405;53.964;13.448;2023-10-13T07:21:12;100524.28;;;11.80;100.00
29433;BME280;16405;53.964;13.448;2023-10-13T07:23:43;100527.41;;;11.87;100.00
29433;BME280;16405;53.964;13.448;2023-10-13T07:26:25;100523.19;;;12.00;100.00
29433;BME280;16405;53.964;13.448;2023-10-13T07:28:52;100523.81;;;12.05;100.00
29433;BME280;16405;53.964;13.448;2023-10-13T07:31:17;100514.59;;;12.13;100.00
29433;BME280;16405;53.964;13.448;2023-10-13T07:33:46;100517.81;;;12.18;100.00
29433;BME280;16405;53.964;13.448;2023-10-13T07:36:20;100514.91;;;12.22;100.00
29433;BME280;16405;53.964;13.448;2023-10-13T07:39:05;100517.97;;;12.30;100.00
29433;BME280;16405;53.964;13.448;2023-10-13T07:41:48;100522.06;;;12.36;100.00
29433;BME280;16405;53.964;13.448;2023-10-13T07:44:22;100512.75;;;12.45;100.00
29433;BME280;16405;53.964;13.448;2023-10-13T07:46:54;100503.44;;;12.54;100.00
29433;BME280;16405;53.964;13.448;2023-10-13T07:49:35;100502.16;;;12.61;100.00
29433;BME280;16405;53.964;13.448;2023-10-13T07:52:05;100497.47;;;12.66;100.00
29433;BME280;16405;53.964;13.448;2023-10-13T07:55:00;100495.19;;;12.74;100.00
29433;BME280;16405;53.964;13.448;2023-10-13T07:57:40;100489.56;;;12.80;100.00
29433;BME280;16405;53.964;13.448;2023-10-13T08:00:23;100490.03;;;12.87;100.00
29433;BME280;16405;53.964;13.448;2023-10-13T08:03:15;100479.09;;;12.93;100.00
29433;BME280;16405;53.964;13.448;2023-10-13T08:05:42;100480.44;;;13.00;100.00
29433;BME280;16405;53.964;13.448;2023-10-13T08:08:34;100480.03;;;13.06;100.00
29433;BME280;16405;53.964;13.448;2023-10-13T08:11:13;100469.03;;;13.14;100.00
29433;BME280;16405;53.964;13.448;2023-10-13T08:14:04;100469.41;;;13.22;100.00
29433;BME280;16405;53.964;13.448;2023-10-13T08:17:07;100472.56;;;13.29;100.00
29433;BME280;16405;53.964;13.448;2023-10-13T08:19:36;100465.00;;;13.37;100.00
29433;BME280;16405;53.964;13.448;2023-10-13T08:22:12;100469.78;;;13.45;100.00
29433;BME280;16405;53.964;13.448;2023-10-13T08:24:44;100459.59;;;13.53;100.00
29433;BME280;16405;53.964;13.448;2023-10-13T08:27:15;100450.22;;;13.62;100.00
29433;BME280;16405;53.964;13.448;2023-10-13T08:30:00;100445.38;;;13.68;100.00
29433;BME280;16405;53.964;13.448;2023-10-13T08:32:32;100442.44;;;13.73;100.00
29433;BME280;16405;53.964;13.448;2023-10-13T08:34:59;100444.59;;;13.81;100.00
29433;BME280;16405;53.964;13.448;2023-10-13T08:37:37;100431.72;;;13.89;100.00
29433;BME280;16405;53.964;13.448;2023-10-13T08:40:19;100438.09;;;13.99;100.00
29433;BME280;16405;53.964;13.448;2023-10-13T08:43:09;100433.06;;;14.09;100.00
29433;BME280;16405;53.964;13.448;2023-10-13T08:45:41;100421.94;;;14.16;100.00
29433;BME280;16405;53.964;13.448;2023-10-13T08:48:33;100413.41;;;14.26;100.00
29433;BME280;16405;53.964;13.448;2023-10-13T08:50:58;100411.06;;;14.34;100.00
29433;BME280;16405;53.964;13.448;2023-10-13T08:53:41;100415.75;;;14.43;100.00
29433;BME280;16405;53.964;13.448;2023-10-13T08:56:32;100407.28;;;14.51;100.00
29433;BME280;16405;53.964;13.448;2023-10-13T08:59:02;100409.34;;;14.60;100.00
29433;BME280;16405;53.964;13.448;2023-10-13T09:04:35;100396.72;;;14.76;100.00
29433;BME280;16405;53.964;13.448;2023-10-13T09:07:05;100383.16;;;14.81;100.00
29433;BME280;16405;53.964;13.448;2023-10-13T09:09:51;100389.00;;;14.86;100.00
29433;BME280;16405;53.964;13.448;2023-10-13T09:12:40;100385.28;;;14.89;100.00
29433;BME280;16405;53.964;13.448;2023-10-13T09:15:30;100373.72;;;14.90;100.00
29433;BME280;16405;53.964;13.448;2023-10-13T09:18:24;100369.16;;;14.92;100.00
29433;BME280;16405;53.964;13.448;2023-10-13T09:21:09;100361.09;;;14.93;100.00
29433;BME280;16405;53.964;13.448;2023-10-13T09:24:16;100367.13;;;14.95;100.00
29433;BME280;16405;53.964;13.448;2023-10-13T09:26:48;100354.53;;;14.99;100.00
29433;BME280;16405;53.964;13.448;2023-10-13T09:29:25;100354.19;;;15.04;100.00
29433;BME280;16405;53.964;13.448;2023-10-13T09:32:02;100352.28;;;15.06;100.00
29433;BME280;16405;53.964;13.448;2023-10-13T09:34:40;100351.94;;;15.10;100.00
29433;BME280;16405;53.964;13.448;2023-10-13T09:37:10;100341.25;;;15.12;100.00
29433;BME280;16405;53.964;13.448;2023-10-13T09:39:45;100338.13;;;15.18;100.00
29433;BME280;16405;53.964;13.448;2023-10-13T09:42:25;100336.94;;;15.22;100.00
29433;BME280;16405;53.964;13.448;2023-10-13T09:44:52;100343.00;;;15.24;100.00
29433;BME280;16405;53.964;13.448;2023-10-13T09:47:28;100340.13;;;15.27;100.00
29433;BME280;16405;53.964;13.448;2023-10-13T09:53:11;100337.47;;;15.27;100.00
29433;BME280;16405;53.964;13.448;2023-10-13T09:55:54;100331.09;;;15.30;100.00
29433;BME280;16405;53.964;13.448;2023-10-13T09:59:17;100327.47;;;15.31;100.00
29433;BME280;16405;53.964;13.448;2023-10-13T10:01:52;100315.09;;;15.31;100.00
29433;BME280;16405;53.964;13.448;2023-10-13T10:04:56;100288.41;;;15.33;100.00
29433;BME280;16405;53.964;13.448;2023-10-13T10:08:06;100279.53;;;15.34;100.00
29433;BME280;16405;53.964;13.448;2023-10-13T10:17:09;100260.91;;;15.47;100.00
29433;BME280;16405;53.964;13.448;2023-10-13T10:19:52;100251.75;;;15.51;100.00
29433;BME280;16405;53.964;13.448;2023-10-13T10:22:59;100248.59;;;15.57;100.00
29433;BME280;16405;53.964;13.448;2023-10-13T10:25:38;100234.03;;;15.63;100.00
29433;BME280;16405;53.964;13.448;2023-10-13T10:28:05;100224.78;;;15.68;100.00
29433;BME280;16405;53.964;13.448;2023-10-13T10:30:42;100225.78;;;15.78;100.00
29433;BME280;16405;53.964;13.448;2023-10-13T10:33:39;100211.09;;;15.86;100.00
29433;BME280;16405;53.964;13.448;2023-10-13T10:36:08;100215.69;;;15.95;100.00
29433;BME280;16405;53.964;13.448;2023-10-13T10:38:58;100209.06;;;16.01;100.00
29433;BME280;16405;53.964;13.448;2023-10-13T10:41:41;100215.59;;;16.08;100.00
29433;BME280;16405;53.964;13.448;2023-10-13T10:44:41;100211.84;;;16.10;100.00
29433;BME280;16405;53.964;13.448;2023-10-13T10:47:30;100216.19;;;16.11;100.00
29433;BME280;16405;53.964;13.448;2023-10-13T10:54:33;100185.41;;;16.09;100.00
29433;BME280;16405;53.964;13.448;2023-10-13T10:57:08;100179.25;;;16.08;100.00
29433;BME280;16405;53.964;13.448;2023-10-13T11:00:21;100174.19;;;16.05;100.00
29433;BME280;16405;53.964;13.448;2023-10-13T11:02:58;100169.81;;;16.04;100.00
29433;BME280;16405;53.964;13.448;2023-10-13T11:08:37;100163.19;;;15.98;100.00
29433;BME280;16405;53.964;13.448;2023-10-13T11:11:28;100152.59;;;15.98;100.00
29433;BME280;16405;53.964;13.448;2023-10-13T11:14:28;100139.16;;;16.00;100.00
29433;BME280;16405;53.964;13.448;2023-10-13T11:17:21;100130.97;;;16.03;100.00
29433;BME280;16405;53.964;13.448;2023-10-13T11:24:02;100126.38;;;16.05;100.00
29433;BME280;16405;53.964;13.448;2023-10-13T11:29:38;100114.06;;;16.04;100.00
29433;BME280;16405;53.964;13.448;2023-10-13T11:32:07;100115.16;;;16.02;100.00
29433;BME280;16405;53.964;13.448;2023-10-13T11:35:48;100100.91;;;15.91;100.00
29433;BME280;16405;53.964;13.448;2023-10-13T11:42:10;100075.44;;;15.89;100.00
29433;BME280;16405;53.964;13.448;2023-10-13T11:44:52;100071.84;;;15.90;100.00
29433;BME280;16405;53.964;13.448;2023-10-13T11:50:30;100053.97;;;16.03;100.00
29433;BME280;16405;53.964;13.448;2023-10-13T11:53:11;100051.06;;;16.06;100.00
29433;BME280;16405;53.964;13.448;2023-10-13T11:55:49;100056.47;;;16.16;100.00
29433;BME280;16405;53.964;13.448;2023-10-13T11:58:31;100044.88;;;16.17;100.00
29433;BME280;16405;53.964;13.448;2023-10-13T12:01:06;100043.66;;;16.21;100.00
29433;BME280;16405;53.964;13.448;2023-10-13T12:04:08;100026.41;;;16.27;100.00
29433;BME280;16405;53.964;13.448;2023-10-13T12:06:59;100022.88;;;16.37;100.00
29433;BME280;16405;53.964;13.448;2023-10-13T12:12:25;100015.28;;;16.54;100.00
29433;BME280;16405;53.964;13.448;2023-10-13T12:15:03;100004.75;;;16.64;100.00
29433;BME280;16405;53.964;13.448;2023-10-13T12:18:13;100011.25;;;16.71;100.00
29433;BME280;16405;53.964;13.448;2023-10-13T12:20:57;100014.72;;;16.71;100.00
29433;BME280;16405;53.964;13.448;2023-10-13T12:23:48;100021.88;;;16.71;100.00
29433;BME280;16405;53.964;13.448;2023-10-13T12:29:08;99993.31;;;16.84;100.00
29433;BME280;16405;53.964;13.448;2023-10-13T12:31:50;99989.41;;;16.88;100.00
29433;BME280;16405;53.964;13.448;2023-10-13T12:34:42;99990.84;;;16.92;100.00
29433;BME280;16405;53.964;13.448;2023-10-13T12:37:39;99988.50;;;16.99;100.00
29433;BME280;16405;53.964;13.448;2023-10-13T12:40:18;99988.81;;;17.06;100.00
29433;BME280;16405;53.964;13.448;2023-10-13T12:43:16;99973.59;;;17.08;100.00
29433;BME280;16405;53.964;13.448;2023-10-13T12:46:09;99974.88;;;17.13;100.00
29433;BME280;16405;53.964;13.448;2023-10-13T12:48:57;99968.44;;;17.16;100.00
29433;BME280;16405;53.964;13.448;2023-10-13T12:51:48;99964.88;;;17.27;100.00
29433;BME280;16405;53.964;13.448;2023-10-13T12:54:16;99954.00;;;17.39;100.00
29433;BME280;16405;53.964;13.448;2023-10-13T12:57:07;99951.75;;;17.45;100.00
29433;BME280;16405;53.964;13.448;2023-10-13T12:59:35;99934.69;;;17.47;100.00
29433;BME280;16405;53.964;13.448;2023-10-13T13:02:01;99922.25;;;17.57;100.00
29433;BME280;16405;53.964;13.448;2023-10-13T13:04:35;99912.88;;;17.63;100.00
29433;BME280;16405;53.964;13.448;2023-10-13T13:07:16;99903.09;;;17.73;100.00
29433;BME280;16405;53.964;13.448;2023-10-13T13:09:42;99911.00;;;17.85;100.00
29433;BME280;16405;53.964;13.448;2023-10-13T13:12:07;99902.31;;;17.82;100.00
29433;BME280;16405;53.964;13.448;2023-10-13T13:14:33;99892.06;;;17.88;100.00
29433;BME280;16405;53.964;13.448;2023-10-13T13:17:09;99885.34;;;17.93;100.00
29433;BME280;16405;53.964;13.448;2023-10-13T13:19:44;99887.59;;;17.98;100.00
29433;BME280;16405;53.964;13.448;2023-10-13T13:22:10;99881.00;;;18.02;100.00
29433;BME280;16405;53.964;13.448;2023-10-13T13:27:15;99884.63;;;18.20;100.00
29433;BME280;16405;53.964;13.448;2023-10-13T13:29:45;99881.41;;;18.27;100.00
29433;BME280;16405;53.964;13.448;2023-10-13T13:32:18;99882.13;;;18.29;100.00
29433;BME280;16405;53.964;13.448;2023-10-13T13:34:49;99862.06;;;18.34;100.00
29433;BME280;16405;53.964;13.448;2023-10-13T13:37:40;99876.09;;;18.27;100.00
29433;BME280;16405;53.964;13.448;2023-10-13T13:40:08;99868.09;;;18.27;100.00
29433;BME280;16405;53.964;13.448;2023-10-13T13:42:47;99854.38;;;18.21;100.00
29433;BME280;16405;53.964;13.448;2023-10-13T13:45:37;99833.75;;;18.23;100.00
29433;BME280;16405;53.964;13.448;2023-10-13T13:48:07;99843.84;;;18.20;100.00
29433;BME280;16405;53.964;13.448;2023-10-13T13:50:37;99861.94;;;18.16;100.00
29433;BME280;16405;53.964;13.448;2023-10-13T13:53:06;99862.50;;;18.10;100.00
29433;BME280;16405;53.964;13.448;2023-10-13T13:55:34;99866.16;;;18.09;100.00
29433;BME280;16405;53.964;13.448;2023-10-13T13:58:00;99857.88;;;18.12;100.00
29433;BME280;16405;53.964;13.448;2023-10-13T14:00:31;99863.47;;;18.09;100.00
29433;BME280;16405;53.964;13.448;2023-10-13T14:03:14;99848.19;;;18.11;100.00
29433;BME280;16405;53.964;13.448;2023-10-13T14:05:59;99847.94;;;18.14;100.00
29433;BME280;16405;53.964;13.448;2023-10-13T14:08:26;99854.63;;;18.18;100.00
29433;BME280;16405;53.964;13.448;2023-10-13T14:10:59;99851.84;;;18.20;100.00
29433;BME280;16405;53.964;13.448;2023-10-13T14:13:50;99846.38;;;18.21;100.00
29433;BME280;16405;53.964;13.448;2023-10-13T14:16:21;99848.75;;;18.24;100.00
29433;BME280;16405;53.964;13.448;2023-10-13T14:18:52;99844.69;;;18.30;100.00